Flight Track Log - Related Links

Times and Time Zones

All times are in EDT time to prevent confusion due to time zone crossing. See the JBU723 flight status page for this flight to view local times or setup timezone preferences in your user account.


Time Position Orientation Groundspeed Altitude Reporting Facility
EDT Latitude Longitude Course Direction KTS MPH feet Rate Location/Type
Sun 07:12:15 AM 38.8833 -77.0667 169° South 172 198 2,600  Level Potomac TRACON
Sun 07:13:15 AM 38.9333 -77.1167 322° Northwest 235 270 5,000 2,789 Climbing Potomac TRACON
Sun 07:14:00 AM 38.5857 -76.7524 142° Southeast  Level FlightAware Approximate
Sun 07:14:09 AM 38.9833 -77.1500 333° Northwest 279 321 7,900  Level Potomac TRACON
Sun 07:15:00 AM 38.4801 -76.7060 171° South  Level FlightAware Approximate
Sun 07:15:09 AM 39.0333 -77.0667 52° Northeast 342 394 10,500  Level Potomac TRACON
Sun 07:16:00 AM 38.3667 -76.6972 90° East  Level FlightAware Approximate
Sun 07:16:54 AM 38.9122 -76.9336 139° Southeast 386 444 14,000  Level Washington Center
Sun 07:17:00 AM 38.2620 -76.6780 169° South  Level FlightAware Approximate
Sun 07:17:53 AM 38.8211 -76.8786 155° Southeast 373 429 16,400  Level Washington Center
Sun 07:18:53 AM 38.7258 -76.8236 156° South 367 422 18,100 1,785 Climbing Washington Center
Sun 07:19:54 AM 38.6242 -76.7689 157° South 385 443 20,000 1,721 Climbing Washington Center
Sun 07:20:55 AM 38.5203 -76.7247 162° South 396 456 21,600 1,714 Climbing Washington Center
Sun 07:21:53 AM 38.4100 -76.7097 174° South 396 456 23,400 1,815 Climbing Washington Center
Sun 07:22:54 AM 38.2869 -76.6894 173° South 402 463 25,200 1,636 Climbing Washington Center
Sun 07:23:54 AM 38.1744 -76.6747 174° South 408 470 26,700 1,240 Climbing Washington Center
Sun 07:24:55 AM 38.0581 -76.6597 174° South 408 470 27,700 756 Climbing Washington Center
Sun 07:25:53 AM 37.9369 -76.6503 176° South 421 484 28,200 807 Climbing Washington Center
Sun 07:26:54 AM 37.8117 -76.6642 185° South 441 507 29,300 1,082 Climbing Washington Center
Sun 07:27:55 AM 37.6906 -76.6808 186° South 447 514 30,400 1,041 Climbing Washington Center
Sun 07:28:55 AM 37.5653 -76.6947 185° South 447 514 31,400 1,059 Climbing Washington Center
Sun 07:29:54 AM 37.4381 -76.7114 186° South 452 520 32,500 1,160 Climbing Washington Center
Sun 07:30:54 AM 37.3128 -76.7303 187° South 452 520 33,700 744 Climbing Washington Center
Sun 07:31:55 AM 37.1894 -76.7494 187° South 458 527 34,000 151 Climbing Washington Center
Sun 07:32:53 AM 37.0642 -76.7683 187° South 458 527 34,000  Level Washington Center
Sun 07:33:53 AM 36.9386 -76.7872 187° South 458 527 34,000  Level Washington Center
Sun 07:34:53 AM 36.8194 -76.8192 192° South 458 527 34,000  Level Washington Center
Sun 07:35:54 AM 36.7103 -76.8769 203° Southwest 438 504 34,000  Level Washington Center
Sun 07:36:55 AM 36.6014 -76.9347 203° Southwest 433 498 34,000  Level Washington Center
Sun 07:37:53 AM 36.4922 -76.9897 202° Southwest 428 493 34,000  Level Washington Center
Sun 07:38:54 AM 36.3936 -77.0422 203° Southwest 428 493 34,000  Level Washington Center
Sun 07:39:55 AM 36.2842 -77.0994 203° Southwest 433 498 34,000  Level Washington Center
Sun 07:40:55 AM 36.1856 -77.1489 202° Southwest 433 498 34,000  Level Washington Center
Sun 07:41:53 AM 36.0553 -77.2133 202° Southwest 428 493 34,000  Level Washington Center
Sun 07:42:55 AM 35.9461 -77.2700 203° Southwest 423 487 34,000  Level Washington Center
Sun 07:43:54 AM 35.8367 -77.3267 203° Southwest 423 487 34,000  Level Washington Center
Sun 07:44:52 AM 35.7233 -77.3831 202° Southwest 428 493 34,000  Level Washington Center
Sun 07:45:53 AM 35.6119 -77.4392 202° Southwest 433 498 34,000  Level Washington Center
Sun 07:46:53 AM 35.5006 -77.4928 201° Southwest 438 504 34,000  Level Washington Center
Sun 07:47:55 AM 35.3931 -77.5514 204° Southwest 438 504 34,000  Level Washington Center
Sun 07:48:53 AM 35.3000 -77.6306 215° Southwest 427 491 34,000  Level Washington Center
Sun 07:49:53 AM 35.2233 -77.7100 220° Southwest 412 474 34,000  Level Washington Center
Sun 07:50:54 AM 35.1361 -77.8017 221° Southwest 412 474 34,000  Level Washington Center
Sun 07:51:54 AM 35.0511 -77.8881 220° Southwest 412 474 34,000  Level Washington Center
Sun 07:52:55 AM 34.9617 -77.9794 220° Southwest 412 474 34,000  Level Washington Center
Sun 07:54:38 AM 34.8086 -78.1367 220° Southwest 406 467 34,000  Level Jacksonville Center
Sun 07:55:38 AM 34.7244 -78.2272 221° Southwest 411 473 34,000  Level Jacksonville Center
Sun 07:56:38 AM 34.6358 -78.3203 221° Southwest 416 479 34,000  Level Jacksonville Center
Sun 07:57:38 AM 34.5494 -78.4081 220° Southwest 416 479 34,000  Level Jacksonville Center
Sun 07:58:38 AM 34.4647 -78.4931 220° Southwest 416 479 34,000  Level Jacksonville Center
Sun 07:59:39 AM 34.3781 -78.5806 220° Southwest 416 479 34,000  Level Jacksonville Center
Sun 08:00:38 AM 34.2872 -78.6706 219° Southwest 416 479 34,000  Level Jacksonville Center
Sun 08:01:38 AM 34.2025 -78.7575 220° Southwest 416 479 34,000  Level Jacksonville Center
Sun 08:02:38 AM 34.1156 -78.8417 219° Southwest 416 479 34,000 -50 Level Jacksonville Center
Sun 08:03:38 AM 34.0308 -78.9258 219° Southwest 416 479 33,900 -50 Descending Jacksonville Center
Sun 08:04:38 AM 33.9456 -79.0100 219° Southwest 411 473 33,900 50 Level Jacksonville Center
Sun 08:05:38 AM 33.8519 -79.0842 213° Southwest 411 473 34,000 50 Climbing Jacksonville Center
Sun 08:06:38 AM 33.7389 -79.1364 201° Southwest 417 480 34,000  Level Jacksonville Center
Sun 08:07:38 AM 33.6172 -79.1889 200° South 422 486 34,000 -50 Level Jacksonville Center
Sun 08:08:38 AM 33.5019 -79.2436 202° Southwest 433 498 33,900  Descending Jacksonville Center
Sun 08:09:38 AM 33.4114 -79.2872 202° Southwest 438 504 34,000 50 Climbing Jacksonville Center
Sun 08:10:38 AM 33.2878 -79.3419 200° South 438 504 34,000  Level Jacksonville Center
Sun 08:11:38 AM 33.1722 -79.3961 201° Southwest 443 510 34,000  Level Jacksonville Center
Sun 08:12:38 AM 33.0569 -79.4500 201° Southwest 443 510 34,000  Level Jacksonville Center
Sun 08:13:38 AM 32.9417 -79.5042 202° Southwest 443 510 34,000  Level Jacksonville Center
Sun 08:14:38 AM 32.8261 -79.5578 201° Southwest 448 516 34,000  Level Jacksonville Center
Sun 08:15:38 AM 32.7064 -79.6117 201° Southwest 448 516 34,000  Level Jacksonville Center
Sun 08:16:38 AM 32.5889 -79.6678 202° Southwest 448 516 34,000  Level Jacksonville Center
Sun 08:17:38 AM 32.4672 -79.7236 201° Southwest 458 527 34,000  Level Jacksonville Center
Sun 08:18:38 AM 32.3475 -79.7769 201° Southwest 464 534 34,000  Level Jacksonville Center
Sun 08:19:38 AM 32.2317 -79.8300 201° Southwest 464 534 34,000  Level Jacksonville Center
Sun 08:20:38 AM 32.1161 -79.8806 200° South 464 534 34,000 -50 Level Jacksonville Center
Sun 08:21:38 AM 32.0006 -79.9333 201° Southwest 459 528 33,900 -50 Descending Jacksonville Center
Sun 08:22:38 AM 31.8828 -79.9861 201° Southwest 459 528 33,900 50 Level Jacksonville Center
Sun 08:23:39 AM 31.7689 -80.0361 200° South 449 517 34,000 50 Climbing Jacksonville Center
Sun 08:24:38 AM 31.6511 -80.0908 202° Southwest 449 517 34,000  Level Jacksonville Center
Sun 08:25:38 AM 31.5394 -80.1406 201° Southwest 449 517 34,000 -50 Level Jacksonville Center
Sun 08:26:38 AM 31.4236 -80.1903 200° South 449 517 33,900 -50 Descending Jacksonville Center
Sun 08:27:38 AM 31.3078 -80.2397 200° South 444 511 33,900 50 Level Jacksonville Center
Sun 08:28:38 AM 31.1878 -80.2917 200° South 449 517 34,000 50 Climbing Jacksonville Center
Sun 08:29:38 AM 31.0761 -80.3433 202° Southwest 449 517 34,000  Level Jacksonville Center
Sun 08:30:38 AM 30.9622 -80.3925 200° South 446 513 34,000  Level Jacksonville Center
Sun 08:31:38 AM 30.8442 -80.4367 198° South 446 513 34,000 -50 Level Jacksonville Center
Sun 08:32:38 AM 30.7217 -80.4786 196° South 452 520 33,900  Descending Jacksonville Center
Sun 08:33:38 AM 30.6014 -80.5225 197° South 457 526 34,000 50 Climbing Jacksonville Center
Sun 08:34:38 AM 30.4814 -80.5689 198° South 457 526 34,000 -350 Level Jacksonville Center
Sun 08:35:38 AM 30.3589 -80.6128 197° South 462 532 33,300 -850 Descending Jacksonville Center
Sun 08:36:38 AM 30.2386 -80.6542 197° South 457 526 32,300 -1,000 Descending Jacksonville Center
Sun 08:37:38 AM 30.1161 -80.7003 198° South 457 526 31,300 -1,050 Descending Jacksonville Center
Sun 08:38:38 AM 29.9936 -80.7439 197° South 457 526 30,200 -1,450 Descending Jacksonville Center
Sun 08:39:38 AM 29.8692 -80.7897 198° South 457 526 28,400 -1,900 Descending Jacksonville Center
Sun 08:40:38 AM 29.7489 -80.8306 196° South 457 526 26,400 -2,050 Descending Jacksonville Center
Sun 08:41:38 AM 29.6283 -80.8761 198° South 457 526 24,300 -2,150 Descending Jacksonville Center
Sun 08:42:38 AM 29.5164 -80.9142 196° South 442 509 22,100 -2,150 Descending Jacksonville Center
Sun 08:43:38 AM 29.4103 -80.9497 196° South 419 482 20,000 -2,100 Descending Jacksonville Center
Sun 08:44:38 AM 29.3003 -80.9875 197° South 414 476 17,900 -2,100 Descending Jacksonville Center
Sun 08:45:38 AM 29.1986 -81.0253 198° South 401 461 15,800 -2,100 Descending Jacksonville Center
Sun 08:46:38 AM 29.0969 -81.0653 199° South 395 455 13,700 -1,950 Descending Jacksonville Center
Sun 08:47:38 AM 28.9969 -81.0883 191° South 383 441 11,900 -900 Descending Jacksonville Center
Sun 08:48:38 AM 28.9108 -81.0378 153° Southeast 352 405 11,900 -261 Level Jacksonville Center
Sun 08:49:10 AM 28.8667 -81.0000 143° Southeast 307 353 11,500 -1,097 Descending Orlando TRACON
Sun 08:50:11 AM 28.7833 -80.9667 161° South 282 325 10,200 -1,370 Descending Orlando TRACON
Sun 08:51:17 AM 28.7500 -81.0333 240° Southwest 241 277 8,600 -1,714 Descending Orlando TRACON
Sun 08:52:17 AM 28.7333 -81.1000 254° West 239 275 6,600 -1,850 Descending Orlando TRACON
Sun 08:53:17 AM 28.7333 -81.1833 270° West 231 266 4,900 -1,300 Descending Orlando TRACON
Sun 08:54:17 AM 28.7333 -81.2500 270° West 194 223 4,000 -450 Descending Orlando TRACON
Sun 08:55:17 AM 28.7000 -81.2833 221° Southwest 199 229 4,000 -53 Level Orlando TRACON
Sun 08:56:11 AM 28.6500 -81.3000 196° South 198 228 3,900 -500 Descending Orlando TRACON
Sun 08:57:17 AM 28.6000 -81.3167 196° South 150 173 3,000 -636 Descending Orlando TRACON
Sun 08:58:23 AM 28.5667 -81.3500 221° Southwest 130 150 2,500 -250 Descending Orlando TRACON
Sun 08:59:17 AM 28.5333 -81.3167 139° Southeast 169 194 2,500 -737 Level Orlando TRACON
Sun 09:00:17 AM 28.5000 -81.3167 180° South 161 185 1,100 -1,400 Descending Orlando TRACON

Login

Don't have an account? Register now (free) for customized features, flight alerts, and more!